Time;durP1;ratioP1;P1;durP2;ratioP2;P2;SDS_P1;SDS_P2;PMS_P1;PMS_P2;Temp;Humidity;BMP_temperature;BMP_pressure;BME280_temperature;BME280_humidity;BME280_pressure;Samples;Min_cycle;Max_cycle;Signal;HPM_P1;HPM_P2
2022/06/12 00:01:13;;;;;;;8.30;3.80;;;;;;;14.16;74.62;98950.42;106541;1274;22541;-80
2022/06/12 00:03:41;;;;;;;4.90;3.80;;;;;;;14.21;74.63;98952.07;106409;1274;22719;-79
2022/06/12 00:06:09;;;;;;;5.10;3.90;;;;;;;14.26;74.57;98950.90;106924;1274;137480;-80
2022/06/12 00:08:39;;;;;;;6.70;4.20;;;;;;;14.29;74.62;98947.06;106587;1274;24995;-79
2022/06/12 00:11:09;;;;;;;6.40;4.20;;;;;;;14.32;74.63;98947.86;106501;1274;138072;-79
2022/06/12 00:13:42;;;;;;;5.30;3.60;;;;;;;14.30;74.34;98952.48;106775;1274;22570;-79
2022/06/12 00:16:11;;;;;;;7.60;3.90;;;;;;;14.21;74.29;98948.52;106271;1277;138438;-80
2022/06/12 00:18:39;;;;;;;4.80;4.10;;;;;;;14.13;74.34;98946.48;106561;1274;24401;-80
2022/06/12 00:21:11;;;;;;;6.70;4.00;;;;;;;14.03;74.71;98941.55;106541;1276;22556;-80
2022/06/12 00:23:46;;;;;;;7.70;4.00;;;;;;;13.98;75.16;98941.40;107163;1276;137719;-80
2022/06/12 00:26:18;;;;;;;5.10;3.90;;;;;;;13.99;75.22;98938.56;106791;1274;30848;-80
2022/06/12 00:28:45;;;;;;;5.30;3.30;;;;;;;14.01;75.32;98939.07;106376;1274;138579;-80
2022/06/12 00:31:13;;;;;;;4.80;3.60;;;;;;;14.06;75.41;98941.27;106991;1274;22658;-80
2022/06/12 00:33:41;;;;;;;4.50;3.90;;;;;;;14.08;75.25;98942.77;106790;1274;22567;-81
2022/06/12 00:36:08;;;;;;;4.30;3.80;;;;;;;14.09;75.26;98943.55;106272;1276;137496;-81
2022/06/12 00:38:35;;;;;;;5.10;4.00;;;;;;;14.11;75.49;98942.48;106675;1276;24245;-80
2022/06/12 00:41:02;;;;;;;5.10;4.20;;;;;;;14.13;75.39;98938.44;106543;1276;137481;-80
2022/06/12 00:43:31;;;;;;;4.00;3.50;;;;;;;14.14;75.07;98933.20;106330;1276;23344;-80
2022/06/12 00:46:00;;;;;;;;;;;;;;;14.13;74.91;98933.08;106663;1274;138687;-81
2022/06/12 00:48:36;;;;;;;4.90;4.30;;;;;;;14.12;75.01;98930.21;106766;1274;24268;-81
2022/06/12 00:51:15;;;;;;;6.20;3.90;;;;;;;14.07;74.86;98928.46;106879;1274;25264;-81
2022/06/12 00:53:55;;;;;;;5.30;4.00;;;;;;;14.00;74.98;98926.25;106871;1274;139617;-81
2022/06/12 00:56:34;;;;;;;7.70;4.10;;;;;;;13.96;75.06;98922.58;107418;1274;24333;-81
2022/06/12 00:59:12;;;;;;;12.70;4.40;;;;;;;13.95;75.21;98923.34;106792;1274;138704;-81
2022/06/12 01:01:49;;;;;;;4.70;3.90;;;;;;;13.97;75.26;98924.71;107138;1274;22537;-81
2022/06/12 01:07:07;;;;;;;6.50;4.00;;;;;;;13.90;75.30;98917.15;106669;1276;29573;-81
2022/06/12 01:09:38;;;;;;;6.70;4.20;;;;;;;13.85;75.52;98915.94;106396;1275;24695;-80
2022/06/12 01:12:12;;;;;;;4.10;3.60;;;;;;;13.80;75.57;98917.95;106841;1276;138406;-80
2022/06/12 01:14:46;;;;;;;3.50;3.10;;;;;;;13.80;75.72;98915.71;106628;1274;25317;-80
2022/06/12 01:17:14;;;;;;;4.90;3.40;;;;;;;13.83;75.69;98914.55;106722;1274;138449;-81
2022/06/12 01:19:50;;;;;;;4.20;3.80;;;;;;;13.84;75.60;98913.61;106113;1275;887488;-81
2022/06/12 01:22:42;;;;;;;6.30;4.10;;;;;;;13.83;75.55;98910.17;106361;1274;138002;-81
2022/06/12 01:25:34;;;;;;;5.70;4.20;;;;;;;13.82;75.77;98914.98;106787;1274;22572;-81
2022/06/12 01:28:25;;;;;;;4.70;4.10;;;;;;;13.82;75.83;98912.29;106671;1274;137776;-80
2022/06/12 01:31:14;;;;;;;6.10;3.60;;;;;;;13.81;75.89;98913.05;106514;1274;25165;-80
2022/06/12 01:33:55;;;;;;;5.60;3.80;;;;;;;13.79;75.76;98909.94;106657;1276;25387;-81
2022/06/12 01:36:48;;;;;;;5.50;3.90;;;;;;;13.76;75.89;98911.05;106700;1274;22704;-81
2022/06/12 01:39:20;;;;;;;5.50;4.00;;;;;;;13.69;75.78;98904.02;106780;1274;22659;-82
2022/06/12 01:41:59;;;;;;;5.50;3.80;;;;;;;13.63;75.92;98902.64;106864;1274;137835;-80
2022/06/12 01:44:47;;;;;;;4.30;3.30;;;;;;;13.58;76.08;98906.03;106430;1275;23923;-81
2022/06/12 01:47:14;;;;;;;4.10;3.50;;;;;;;13.57;76.15;98903.98;106361;1274;138755;-81
2022/06/12 01:49:46;;;;;;;6.70;3.90;;;;;;;13.57;76.40;98909.00;106769;1274;25273;-81
2022/06/12 01:52:48;;;;;;;9.60;4.10;;;;;;;13.56;76.38;98911.95;106325;1276;138227;-81
2022/06/12 01:55:22;;;;;;;6.20;3.90;;;;;;;13.50;76.41;98905.91;106358;1273;25544;-81
2022/06/12 01:57:52;;;;;;;6.90;3.80;;;;;;;13.44;76.40;98904.24;106342;1274;24308;-81
2022/06/12 02:00:22;;;;;;;5.90;3.30;;;;;;;13.39;76.54;98905.38;106524;1274;24359;-82
2022/06/12 02:03:08;;;;;;;4.90;3.40;;;;;;;13.35;76.77;98897.27;106509;1275;22566;-82
2022/06/12 02:06:00;;;;;;;4.40;3.50;;;;;;;13.30;76.79;98909.30;106631;1274;139117;-83
2022/06/12 02:08:57;;;;;;;5.70;4.00;;;;;;;13.29;77.11;98909.15;106573;1274;22619;-83
2022/06/12 02:14:27;;;;;;;4.30;3.30;;;;;;;13.23;77.35;98915.08;106058;1274;22605;-82
2022/06/12 02:16:59;;;;;;;6.90;3.90;;;;;;;13.26;77.63;98916.27;106091;1274;138024;-82
2022/06/12 02:19:33;;;;;;;4.80;4.00;;;;;;;13.29;77.51;98918.50;106265;1274;25267;-81
2022/06/12 02:22:09;;;;;;;6.10;4.30;;;;;;;13.29;77.33;98919.98;106445;1274;137584;-80
2022/06/12 02:24:48;;;;;;;5.30;3.90;;;;;;;13.29;77.26;98916.21;106187;1274;22611;-81
2022/06/12 02:27:24;;;;;;;7.10;3.90;;;;;;;13.28;77.32;98918.48;106398;1276;24284;-82
2022/06/12 02:30:00;;;;;;;5.50;4.20;;;;;;;13.25;77.28;98920.20;106238;1276;139474;-80
2022/06/12 02:32:56;;;;;;;8.20;4.50;;;;;;;13.22;77.34;98919.73;106194;1275;22545;-80
2022/06/12 02:35:45;;;;;;;4.60;4.10;;;;;;;13.22;77.44;98919.98;106248;1277;137611;-81
2022/06/12 02:38:34;;;;;;;7.10;4.10;;;;;;;13.21;77.48;98916.84;106179;1274;25327;-82
2022/06/12 02:41:12;;;;;;;7.70;3.10;;;;;;;13.20;77.26;98920.88;106209;1274;138617;-81
2022/06/12 02:43:43;;;;;;;6.00;3.80;;;;;;;13.16;77.19;98919.52;106283;1274;25340;-81
2022/06/12 02:46:22;;;;;;;6.00;4.30;;;;;;;13.17;77.45;98919.79;106162;1275;137715;-81
2022/06/12 02:48:49;;;;;;;8.30;4.30;;;;;;;13.18;77.56;98917.18;106421;1274;22551;-80
2022/06/12 02:51:26;;;;;;;5.20;3.80;;;;;;;13.19;77.41;98919.18;106264;1274;25385;-80
2022/06/12 02:54:02;;;;;;;4.20;3.70;;;;;;;13.18;77.27;98917.39;106356;1274;137942;-81
2022/06/12 02:56:45;;;;;;;4.60;3.40;;;;;;;13.17;77.28;98919.79;106267;1274;22552;-81
2022/06/12 02:59:34;;;;;;;11.20;4.20;;;;;;;13.16;77.24;98923.84;106166;1275;138114;-80
2022/06/12 03:02:16;;;;;;;5.30;4.30;;;;;;;13.13;77.22;98922.42;106405;1274;24673;-81
2022/06/12 03:05:02;;;;;;;5.00;4.50;;;;;;;13.09;77.34;98920.73;106281;1274;138348;-81
2022/06/12 03:07:31;;;;;;;5.50;5.00;;;;;;;13.08;77.71;98921.05;106269;1276;22554;-81
2022/06/12 03:10:06;;;;;;;3.80;3.50;;;;;;;13.09;77.61;98925.54;106403;1275;138850;-81
2022/06/12 03:12:34;;;;;;;4.30;3.90;;;;;;;13.10;77.82;98924.20;106282;1274;22617;-81
2022/06/12 03:15:08;;;;;;;4.20;3.90;;;;;;;13.13;77.98;98926.40;106144;1276;22602;-81
2022/06/12 03:17:35;;;;;;;6.20;5.00;;;;;;;13.16;77.94;98930.17;106126;1276;138097;-80
2022/06/12 03:20:02;;;;;;;5.40;4.80;;;;;;;13.19;78.05;98930.54;106550;1274;31502;-81
2022/06/12 03:22:41;;;;;;;5.80;4.00;;;;;;;13.19;77.90;98927.98;106157;1276;138289;-81
2022/06/12 03:25:25;;;;;;;4.20;3.60;;;;;;;13.19;77.95;98925.91;106391;1274;22561;-80
2022/06/12 03:28:42;;;;;;;5.10;3.60;;;;;;;13.21;77.86;98925.23;105944;1277;139080;-81
2022/06/12 03:31:19;;;;;;;5.50;4.40;;;;;;;13.19;77.58;98930.77;106037;1276;30729;-80
2022/06/12 03:34:24;;;;;;;5.40;4.50;;;;;;;13.09;77.45;98931.17;106355;1277;25406;-80
2022/06/12 03:37:07;;;;;;;6.70;4.60;;;;;;;13.01;77.71;98931.91;106276;1277;25350;-80
2022/06/12 03:39:46;;;;;;;6.60;4.70;;;;;;;13.01;78.40;98931.21;106279;1277;22685;-81
2022/06/12 03:42:30;;;;;;;6.70;4.30;;;;;;;13.04;78.24;98931.68;106755;1275;138145;-80
2022/06/12 03:45:01;;;;;;;6.20;4.20;;;;;;;13.09;78.39;98933.20;106297;1274;22999;-81
2022/06/12 03:47:51;;;;;;;5.80;4.80;;;;;;;13.17;78.57;98933.16;106164;1275;137999;-80
2022/06/12 03:50:43;;;;;;;8.70;5.00;;;;;;;13.28;78.59;98938.89;106273;1277;22588;-80
2022/06/12 03:53:33;;;;;;;7.30;5.00;;;;;;;13.36;78.52;98941.73;106254;1274;137734;-80
2022/06/12 03:59:42;;;;;;;6.10;4.40;;;;;;;13.46;78.09;98942.36;105901;1275;138879;-80
2022/06/12 04:02:16;;;;;;;5.60;5.00;;;;;;;13.49;77.97;98946.39;106587;1274;23913;-81
2022/06/12 04:04:45;;;;;;;6.70;5.10;;;;;;;13.51;77.97;98945.80;106148;1274;138363;-81
2022/06/12 04:07:17;;;;;;;5.90;5.40;;;;;;;13.53;78.06;98948.86;106396;1276;22590;-81
2022/06/12 04:09:47;;;;;;;6.50;5.90;;;;;;;13.58;78.14;98947.83;106905;1274;22537;-81
2022/06/12 04:12:26;;;;;;;6.50;5.10;;;;;;;13.62;78.03;98945.53;106369;1274;138448;-81
2022/06/12 04:15:18;;;;;;;6.80;6.10;;;;;;;13.67;77.84;98943.29;106315;1275;22650;-81
2022/06/12 04:17:46;;;;;;;7.70;6.60;;;;;;;13.74;77.69;98943.66;106274;1275;137641;-81
2022/06/12 04:20:22;;;;;;;12.20;6.80;;;;;;;13.79;77.80;98941.48;106334;1274;24299;-81
2022/06/12 04:22:58;;;;;;;9.30;6.70;;;;;;;13.84;77.69;98944.45;106136;1274;138175;-81
2022/06/12 04:25:32;;;;;;;7.60;6.90;;;;;;;13.88;77.65;98946.36;106369;1274;22541;-79
2022/06/12 04:28:00;;;;;;;6.60;5.70;;;;;;;13.92;77.58;98949.47;106146;1276;138442;-80
2022/06/12 04:30:35;;;;;;;7.40;5.90;;;;;;;13.95;77.57;98952.58;106265;1274;22536;-80
2022/06/12 04:33:39;;;;;;;11.40;7.00;;;;;;;14.01;77.52;98951.89;106906;1274;22752;-80
2022/06/12 04:36:08;;;;;;;8.40;6.60;;;;;;;14.08;77.69;98953.33;106225;1274;138211;-81
2022/06/12 04:38:36;;;;;;;7.60;6.60;;;;;;;14.13;77.55;98953.58;106491;1274;23917;-79
2022/06/12 04:41:03;;;;;;;8.10;6.10;;;;;;;14.18;77.57;98959.10;106417;1274;137647;-80
2022/06/12 04:43:31;;;;;;;8.20;5.00;;;;;;;14.25;77.49;98961.92;106317;1274;22697;-80
2022/06/12 04:45:58;;;;;;;9.20;6.00;;;;;;;14.33;77.42;98965.14;106534;1274;138295;-80
2022/06/12 04:48:35;;;;;;;8.60;6.60;;;;;;;14.43;77.27;98966.16;106217;1274;25321;-80
2022/06/12 04:51:04;;;;;;;6.90;6.10;;;;;;;14.52;77.37;98963.90;106347;1274;25334;-80
2022/06/12 04:53:32;;;;;;;7.70;6.80;;;;;;;14.59;77.24;98964.50;106155;1276;137512;-80
2022/06/12 04:55:59;;;;;;;9.80;6.60;;;;;;;14.66;77.07;98961.67;106260;1276;24221;-80
2022/06/12 04:58:27;;;;;;;6.70;6.00;;;;;;;14.71;77.00;98961.89;105864;1277;138681;-81
2022/06/12 05:00:54;;;;;;;8.30;6.30;;;;;;;14.77;77.11;98964.36;106274;1274;22560;-81
2022/06/12 05:03:22;;;;;;;8.50;6.80;;;;;;;14.84;76.94;98968.08;106198;1277;22551;-81
2022/06/12 05:05:49;;;;;;;8.10;7.00;;;;;;;14.89;77.04;98966.92;106085;1274;138487;-81
2022/06/12 05:08:17;;;;;;;11.70;6.70;;;;;;;14.94;76.85;98964.77;106245;1277;22579;-81
2022/06/12 05:10:45;;;;;;;9.50;7.20;;;;;;;15.00;76.98;98964.38;106181;1275;137693;-79
2022/06/12 05:13:13;;;;;;;7.70;6.10;;;;;;;15.06;76.79;98962.34;106122;1276;30603;-80
2022/06/12 05:15:40;;;;;;;6.40;5.80;;;;;;;15.12;76.80;98966.30;106268;1276;22556;-79
2022/06/12 05:18:09;;;;;;;7.90;6.00;;;;;;;15.19;76.84;98967.66;106430;1274;138107;-80
2022/06/12 05:20:37;;;;;;;7.70;6.90;;;;;;;15.26;76.63;98969.58;106456;1274;25342;-80
2022/06/12 05:23:05;;;;;;;7.60;6.80;;;;;;;15.34;76.64;98970.95;106825;1274;137880;-80
2022/06/12 05:25:34;;;;;;;8.00;7.10;;;;;;;15.41;76.26;98969.95;106877;1274;22560;-80
2022/06/12 05:28:03;;;;;;;9.90;7.40;;;;;;;15.48;76.27;98965.77;106663;1274;137649;-80
2022/06/12 05:30:33;;;;;;;8.90;6.20;;;;;;;15.55;76.22;98964.45;106919;1274;24430;-80
2022/06/12 05:33:01;;;;;;;7.80;6.90;;;;;;;15.65;75.93;98968.17;106808;1274;22547;-80
2022/06/12 05:35:30;;;;;;;11.50;7.20;;;;;;;15.75;76.30;98966.61;106735;1274;137450;-80
2022/06/12 05:38:00;;;;;;;8.60;7.70;;;;;;;15.86;75.87;98967.13;106688;1277;24267;-80
2022/06/12 05:40:35;;;;;;;9.60;7.20;;;;;;;15.95;75.73;98962.88;106811;1274;139597;-79
2022/06/12 05:43:03;;;;;;;10.00;7.20;;;;;;;16.04;75.40;98965.34;106451;1277;22636;-80
2022/06/12 05:45:32;;;;;;;10.10;7.60;;;;;;;16.13;75.31;98967.29;106429;1276;23963;-80
2022/06/12 05:48:10;;;;;;;;;;;;;;;16.22;75.37;98967.66;106717;1274;138949;-80
2022/06/12 05:50:50;;;;;;;11.60;7.80;;;;;;;16.31;75.25;98970.71;106553;1275;22582;-80
2022/06/12 05:53:18;;;;;;;11.30;8.00;;;;;;;16.40;75.22;98968.31;106254;1277;138235;-80
2022/06/12 05:55:46;;;;;;;11.40;8.00;;;;;;;16.49;75.13;98975.21;106580;1275;23313;-80
2022/06/12 05:58:15;;;;;;;9.00;7.80;;;;;;;16.59;75.08;98975.23;106364;1277;138056;-80
2022/06/12 06:00:43;;;;;;;9.50;8.30;;;;;;;16.68;74.99;98982.02;106731;1274;22632;-80
2022/06/12 06:03:10;;;;;;;10.50;8.00;;;;;;;16.77;74.41;98976.32;106763;1274;24291;-80
2022/06/12 06:05:39;;;;;;;14.90;9.30;;;;;;;16.86;74.36;98978.48;106328;1277;138154;-80
2022/06/12 06:08:08;;;;;;;10.50;7.70;;;;;;;16.97;74.03;98979.55;106863;1274;22548;-80
2022/06/12 06:10:35;;;;;;;;;;;;;;;17.05;73.47;98980.39;106982;1274;138784;-80
2022/06/12 06:13:02;;;;;;;8.80;6.90;;;;;;;17.13;72.97;98978.95;106709;1274;22557;-80
2022/06/12 06:15:29;;;;;;;9.00;6.70;;;;;;;17.22;72.76;98979.73;106662;1274;22719;-80
2022/06/12 06:17:56;;;;;;;7.20;6.20;;;;;;;17.30;72.42;98975.75;106818;1275;137621;-80
2022/06/12 06:20:32;;;;;;;10.10;6.80;;;;;;;17.38;72.22;98978.45;106678;1274;23376;-80
2022/06/12 06:22:59;;;;;;;9.60;7.20;;;;;;;17.47;72.06;98976.29;106473;1275;138787;-80
2022/06/12 06:25:29;;;;;;;7.40;6.40;;;;;;;17.56;71.86;98976.60;106962;1274;22618;-80
2022/06/12 06:27:56;;;;;;;8.00;6.30;;;;;;;17.65;71.66;98972.12;107152;1275;138124;-80
2022/06/12 06:30:25;;;;;;;8.60;6.20;;;;;;;17.76;71.37;98970.72;106894;1274;23345;-80
2022/06/12 06:32:52;;;;;;;8.20;6.50;;;;;;;17.88;71.07;98975.27;106421;1275;26506;-80
2022/06/12 06:35:23;;;;;;;9.30;6.80;;;;;;;17.97;70.80;98979.06;106598;1274;137690;-80
2022/06/12 06:37:55;;;;;;;7.10;6.40;;;;;;;18.07;70.68;98979.36;107036;1274;24434;-80
2022/06/12 06:40:25;;;;;;;8.70;6.60;;;;;;;18.15;70.42;98977.95;106709;1274;137938;-80
2022/06/12 06:42:54;;;;;;;8.00;5.90;;;;;;;18.25;70.37;98968.25;106738;1277;23965;-80
2022/06/12 06:48:20;;;;;;;8.50;6.10;;;;;;;18.45;70.01;98971.08;107068;1274;138068;-80
2022/06/12 06:50:49;;;;;;;9.40;5.20;;;;;;;18.56;69.75;98968.08;106826;1274;22566;-80
2022/06/12 06:53:17;;;;;;;8.20;5.80;;;;;;;18.68;69.20;98966.69;106991;1274;137864;-80
2022/06/12 06:55:45;;;;;;;7.80;5.50;;;;;;;18.81;69.09;98963.91;106467;1274;25264;-80
2022/06/12 06:58:16;;;;;;;6.00;5.20;;;;;;;18.92;68.87;98964.95;106427;1274;138236;-80
2022/06/12 07:00:45;;;;;;;7.90;5.60;;;;;;;19.03;68.59;98964.48;106862;1275;22561;-80
2022/06/12 07:03:14;;;;;;;6.80;4.90;;;;;;;19.14;68.26;98963.94;106807;1274;22716;-80
2022/06/12 07:05:47;;;;;;;5.20;4.70;;;;;;;19.26;67.72;98966.77;107231;1273;137689;-80
2022/06/12 07:08:18;;;;;;;6.40;5.00;;;;;;;19.39;66.90;98966.66;106531;1274;25547;-80
2022/06/12 07:10:46;;;;;;;5.90;4.50;;;;;;;19.49;66.42;98964.17;106456;1276;137450;-80
2022/06/12 07:13:15;;;;;;;5.90;4.30;;;;;;;19.59;66.33;98967.23;106715;1274;24258;-80
2022/06/12 07:15:43;;;;;;;5.00;4.50;;;;;;;19.70;65.87;98966.29;106754;1277;22550;-80
2022/06/12 07:18:12;;;;;;;4.90;4.10;;;;;;;19.80;65.51;98958.09;106420;1277;138507;-79
2022/06/12 07:20:46;;;;;;;4.90;3.90;;;;;;;19.93;65.39;98957.39;106879;1274;22611;-79
2022/06/12 07:23:15;;;;;;;6.00;4.10;;;;;;;20.06;64.77;98959.15;106703;1274;137799;-79
2022/06/12 07:25:47;;;;;;;6.70;4.10;;;;;;;20.17;63.59;98959.73;106059;1277;24246;-80
2022/06/12 07:28:14;;;;;;;4.30;3.60;;;;;;;20.26;63.57;98952.88;106335;1276;138318;-79
2022/06/12 07:30:42;;;;;;;4.20;3.60;;;;;;;20.39;63.25;98950.39;106396;1274;22855;-79
2022/06/12 07:33:09;;;;;;;3.10;2.80;;;;;;;20.53;62.79;98951.91;106141;1276;23929;-79
2022/06/12 07:35:39;;;;;;;4.40;4.10;;;;;;;20.65;61.71;98952.23;106542;1274;137579;-79
2022/06/12 07:38:07;;;;;;;4.40;3.30;;;;;;;20.75;60.67;98951.04;106757;1274;24220;-79
2022/06/12 07:40:38;;;;;;;7.70;3.70;;;;;;;20.85;60.64;98948.34;106271;1275;137905;-79
2022/06/12 07:43:06;;;;;;;7.20;3.50;;;;;;;20.96;60.38;98944.19;106332;1274;24202;-79
2022/06/12 07:45:33;;;;;;;3.20;2.90;;;;;;;21.06;60.07;98941.80;106519;1274;22558;-79
2022/06/12 07:48:00;;;;;;;4.20;2.80;;;;;;;21.15;60.11;98942.39;106745;1274;137772;-79
2022/06/12 07:50:27;;;;;;;3.90;3.00;;;;;;;21.25;59.80;98941.55;107037;1274;23957;-79
2022/06/12 07:52:54;;;;;;;3.60;3.20;;;;;;;21.34;59.65;98939.73;107313;1274;137587;-79
2022/06/12 07:55:22;;;;;;;5.30;3.10;;;;;;;21.45;59.18;98943.70;106864;1274;22778;-79
2022/06/12 07:57:48;;;;;;;3.30;2.80;;;;;;;21.55;58.76;98940.27;106660;1276;23168;-79
2022/06/12 08:00:17;;;;;;;5.10;2.90;;;;;;;21.64;58.28;98941.47;106321;1276;137485;-79
2022/06/12 08:02:46;;;;;;;3.40;2.60;;;;;;;21.72;56.54;98939.39;106550;1274;22602;-78
2022/06/12 08:05:14;;;;;;;;;;;;;;;21.83;56.96;98933.73;106889;1274;137789;-79
2022/06/12 08:07:42;;;;;;;5.10;3.20;;;;;;;21.95;56.01;98932.05;106744;1274;22521;-78
2022/06/12 08:10:11;;;;;;;;;;;;;;;22.03;55.49;98932.11;106911;1274;138662;-78
2022/06/12 08:12:39;;;;;;;;;;;;;;;22.14;55.03;98931.45;107048;1274;25417;-78
2022/06/12 08:15:09;;;;;;;3.90;2.80;;;;;;;22.21;53.90;98929.08;106353;1276;23428;-78
2022/06/12 08:17:37;;;;;;;2.90;2.10;;;;;;;22.27;54.50;98925.79;106795;1276;137542;-78
2022/06/12 08:23:05;;;;;;;2.00;1.70;;;;;;;22.54;54.39;98913.77;106176;1277;137428;-78
2022/06/12 08:25:36;;;;;;;2.40;2.10;;;;;;;22.70;55.19;98914.60;106814;1274;25690;-78
2022/06/12 08:28:04;;;;;;;1.90;1.50;;;;;;;22.87;54.11;98913.46;106885;1274;138807;-78
2022/06/12 08:30:31;;;;;;;4.00;1.60;;;;;;;23.05;51.94;98907.27;106582;1274;22544;-78
2022/06/12 08:32:59;;;;;;;2.80;1.50;;;;;;;23.24;51.02;98904.25;106345;1275;25576;-78
2022/06/12 08:35:31;;;;;;;1.50;1.40;;;;;;;23.42;50.28;98905.73;106683;1274;137788;-78
2022/06/12 08:38:00;;;;;;;2.40;1.50;;;;;;;23.58;49.25;98904.16;106292;1275;24324;-77
2022/06/12 08:40:44;;;;;;;1.80;1.40;;;;;;;23.72;48.35;98899.83;107473;1274;138886;-78
2022/06/12 08:43:15;;;;;;;3.00;1.50;;;;;;;23.86;47.63;98900.63;106959;1274;22620;-78
2022/06/12 08:45:50;;;;;;;3.20;1.40;;;;;;;23.97;47.73;98902.20;106651;1277;25324;-77
2022/06/12 08:48:35;;;;;;;1.40;1.20;;;;;;;24.12;47.76;98907.05;106975;1274;137689;-77
2022/06/12 08:51:17;;;;;;;5.10;1.50;;;;;;;24.28;47.42;98906.62;106557;1274;24258;-77
2022/06/12 08:54:09;;;;;;;2.60;1.30;;;;;;;24.40;46.86;98904.32;106733;1274;137590;-77
2022/06/12 08:57:03;;;;;;;2.40;1.50;;;;;;;24.57;46.38;98900.90;106546;1274;23864;-77
2022/06/12 08:59:56;;;;;;;3.40;1.60;;;;;;;24.69;46.01;98899.80;106589;1274;137760;-77
2022/06/12 09:02:30;;;;;;;1.60;1.50;;;;;;;24.82;45.52;98898.55;106963;1274;22665;-77
2022/06/12 09:05:00;;;;;;;4.20;1.50;;;;;;;24.95;44.45;98897.23;106407;1274;137696;-78
2022/06/12 09:07:47;;;;;;;2.10;1.20;;;;;;;25.02;44.02;98894.92;106801;1275;22595;-78
2022/06/12 09:10:38;;;;;;;7.20;1.70;;;;;;;25.19;44.55;98895.80;106742;1274;137707;-78
2022/06/12 09:13:39;;;;;;;2.10;1.80;;;;;;;25.34;43.97;98896.26;106943;1274;25435;-77
2022/06/12 09:16:48;;;;;;;1.40;1.30;;;;;;;25.51;43.39;98891.15;106752;1274;137907;-77
2022/06/12 09:20:11;;;;;;;1.50;1.40;;;;;;;25.68;42.83;98885.73;107215;1274;24243;-78
2022/06/12 09:23:15;;;;;;;4.50;1.30;;;;;;;25.77;42.45;98883.91;107353;1274;137970;-77
2022/06/12 09:26:24;;;;;;;3.60;1.40;;;;;;;25.91;42.56;98875.68;107550;1274;25311;-78
2022/06/12 09:29:27;;;;;;;1.80;1.40;;;;;;;26.09;42.48;98876.02;106473;1274;138253;-78
2022/06/12 09:32:13;;;;;;;2.80;1.30;;;;;;;26.22;41.72;98876.35;107222;1275;22644;-78
2022/06/12 09:35:10;;;;;;;1.90;1.50;;;;;;;26.33;40.57;98878.21;107620;1274;137928;-78
2022/06/12 09:40:51;;;;;;;1.70;1.60;;;;;;;26.60;41.73;98862.88;107311;1277;138018;-78
2022/06/12 09:43:27;;;;;;;4.40;1.60;;;;;;;26.80;41.02;98857.94;107591;1274;22552;-78
2022/06/12 09:46:09;;;;;;;2.80;1.40;;;;;;;26.94;40.47;98857.41;107025;1274;137978;-77
2022/06/12 09:49:08;;;;;;;3.10;1.50;;;;;;;27.01;39.67;98853.92;108482;1276;31460;-78
2022/06/12 09:52:07;;;;;;;1.90;1.40;;;;;;;27.13;39.85;98849.87;108893;1275;23419;-78
2022/06/12 09:54:46;;;;;;;3.70;1.60;;;;;;;27.35;39.78;98850.02;106578;1277;22605;-78
2022/06/12 09:57:51;;;;;;;3.10;1.30;;;;;;;27.57;40.07;98848.19;108152;1274;25509;-78
2022/06/12 10:00:26;;;;;;;1.80;1.30;;;;;;;27.80;37.96;98846.46;107436;1277;137424;-78
2022/06/12 10:02:59;;;;;;;1.30;1.20;;;;;;;27.76;37.97;98844.91;106915;1274;25470;-78
2022/06/12 10:05:38;;;;;;;3.60;1.50;;;;;;;27.64;38.24;98839.38;106789;1274;139487;-78
2022/06/12 10:08:15;;;;;;;3.70;1.60;;;;;;;27.42;39.00;98840.90;106806;1275;23358;-78
2022/06/12 10:11:00;;;;;;;2.50;1.30;;;;;;;27.07;37.90;98839.04;106654;1274;137515;-78
2022/06/12 10:14:00;;;;;;;2.10;1.40;;;;;;;26.66;38.90;98844.65;107038;1274;22577;-79
2022/06/12 10:16:44;;;;;;;2.00;1.70;;;;;;;26.07;40.05;98848.01;106492;1274;137799;-77
2022/06/12 10:19:28;;;;;;;2.60;1.30;;;;;;;25.73;40.37;98845.53;106965;1274;22557;-77
2022/06/12 10:22:01;;;;;;;2.30;1.50;;;;;;;25.87;41.59;98846.21;106452;1275;137714;-77
2022/06/12 10:24:28;;;;;;;3.60;1.50;;;;;;;26.08;40.47;98842.69;106491;1277;26632;-77
2022/06/12 10:27:04;;;;;;;2.70;1.30;;;;;;;26.34;41.08;98832.84;106878;1274;23489;-77
2022/06/12 10:29:46;;;;;;;1.70;1.30;;;;;;;26.49;40.30;98828.94;106539;1275;139583;-77
2022/06/12 10:32:17;;;;;;;2.40;1.40;;;;;;;26.49;41.28;98826.07;106367;1274;23922;-77
2022/06/12 10:34:46;;;;;;;1.60;1.40;;;;;;;26.55;40.35;98823.90;107356;1277;137995;-77
2022/06/12 10:37:23;;;;;;;2.40;1.60;;;;;;;26.30;38.95;98822.00;107199;1274;24285;-77
2022/06/12 10:40:13;;;;;;;2.60;1.50;;;;;;;26.16;40.12;98819.08;106623;1277;30481;-77
2022/06/12 10:42:48;;;;;;;2.80;1.70;;;;;;;26.20;40.97;98816.70;107087;1274;22563;-77
2022/06/12 10:45:21;;;;;;;3.20;1.50;;;;;;;26.19;41.02;98816.87;107203;1274;22646;-77
2022/06/12 10:47:51;;;;;;;1.60;1.40;;;;;;;26.25;41.00;98814.78;106824;1274;137731;-77
2022/06/12 10:50:23;;;;;;;2.30;1.30;;;;;;;26.58;40.23;98807.57;106886;1274;31789;-77
2022/06/12 10:52:58;;;;;;;2.00;1.50;;;;;;;26.94;40.15;98806.16;106484;1274;138083;-77
2022/06/12 10:56:02;;;;;;;1.80;1.40;;;;;;;27.20;38.88;98805.29;106845;1274;25544;-77
2022/06/12 10:59:09;;;;;;;1.50;1.30;;;;;;;27.34;37.75;98801.95;105918;1275;138492;-77
2022/06/12 11:02:08;;;;;;;2.40;1.50;;;;;;;27.48;37.57;98798.02;106891;1274;23917;-77
2022/06/12 11:05:13;;;;;;;2.50;1.50;;;;;;;27.76;37.58;98802.27;106479;1275;138725;-77
2022/06/12 11:07:53;;;;;;;2.30;1.50;;;;;;;27.98;37.40;98799.40;106356;1274;23602;-77
2022/06/12 11:10:31;;;;;;;2.30;1.20;;;;;;;28.17;37.20;98799.58;106772;1274;138000;-77
2022/06/12 11:13:11;;;;;;;1.70;1.30;;;;;;;28.33;36.07;98792.19;107350;1274;22529;-77
2022/06/12 11:16:00;;;;;;;3.10;1.40;;;;;;;28.50;36.14;98792.27;106743;1274;22563;-77
2022/06/12 11:18:48;;;;;;;1.80;1.40;;;;;;;28.74;36.32;98794.56;106748;1274;24081;-77
2022/06/12 11:22:00;;;;;;;2.30;1.30;;;;;;;28.96;35.57;98790.36;107284;1274;30612;-77
2022/06/12 11:24:55;;;;;;;1.50;1.30;;;;;;;29.23;35.11;98794.27;106710;1274;25358;-77
2022/06/12 11:27:28;;;;;;;1.30;1.20;;;;;;;29.47;34.85;98790.95;106537;1275;24225;-77
2022/06/12 11:30:28;;;;;;;2.60;1.30;;;;;;;29.60;35.30;98792.46;106461;1274;138314;-77
2022/06/12 11:33:15;;;;;;;2.20;1.40;;;;;;;29.84;34.92;98789.69;107032;1277;25274;-77
2022/06/12 11:35:59;;;;;;;1.80;1.20;;;;;;;29.82;34.45;98783.70;106904;1277;138127;-76
2022/06/12 11:38:49;;;;;;;3.40;1.50;;;;;;;29.64;33.75;98781.10;107314;1274;22796;-77
2022/06/12 11:41:36;;;;;;;1.80;1.50;;;;;;;29.72;34.04;98779.46;107338;1274;137576;-77
2022/06/12 11:44:38;;;;;;;1.20;1.10;;;;;;;29.90;34.21;98774.81;107404;1274;22549;-77
2022/06/12 11:47:53;;;;;;;2.40;1.40;;;;;;;30.01;33.44;98769.79;107339;1274;138015;-77
2022/06/12 11:50:44;;;;;;;2.50;1.40;;;;;;;29.81;33.48;98767.48;106709;1274;24371;-77
2022/06/12 11:53:36;;;;;;;3.30;1.40;;;;;;;29.49;34.09;98763.24;106963;1274;137511;-77
2022/06/12 11:56:33;;;;;;;1.70;1.30;;;;;;;29.07;34.97;98761.87;106908;1274;22569;-77
2022/06/12 11:59:25;;;;;;;2.70;1.20;;;;;;;28.55;34.19;98758.16;106827;1274;137713;-77
2022/06/12 12:02:37;;;;;;;1.20;1.10;;;;;;;28.27;34.69;98756.23;107389;1274;30280;-76
2022/06/12 12:05:30;;;;;;;3.90;1.40;;;;;;;28.35;34.76;98750.60;106786;1274;137642;-76
2022/06/12 12:08:16;;;;;;;2.70;1.20;;;;;;;28.62;34.46;98749.23;106377;1274;22560;-75
2022/06/12 12:10:48;;;;;;;1.70;1.20;;;;;;;28.80;33.80;98745.08;106533;1274;137682;-76
2022/06/12 12:13:28;;;;;;;1.60;1.20;;;;;;;28.94;35.15;98740.23;106839;1277;24231;-76
2022/06/12 12:16:12;;;;;;;1.10;1.00;;;;;;;28.88;34.55;98739.17;106777;1274;140049;-76
2022/06/12 12:19:09;;;;;;;3.60;1.20;;;;;;;28.89;34.47;98735.20;106379;1275;22557;-77
2022/06/12 12:22:01;;;;;;;2.10;1.40;;;;;;;29.10;34.05;98734.55;106974;1274;22544;-77
2022/06/12 12:24:53;;;;;;;2.30;1.30;;;;;;;29.26;34.14;98729.77;106401;1274;24450;-77
2022/06/12 12:27:35;;;;;;;1.90;1.10;;;;;;;29.51;34.37;98735.80;106433;1274;24395;-77